Time;durP1;ratioP1;P1;durP2;ratioP2;P2;SDS_P1;SDS_P2;PMS_P1;PMS_P2;Temp;Humidity;BMP_temperature;BMP_pressure;BME280_temperature;BME280_humidity;BME280_pressure;Samples;Min_cycle;Max_cycle;Signal;HPM_P1;HPM_P2
2022/09/05 00:00:22;;;;;;;6.22;4.63;;;20.70;99.90;;;;;;5047164;28;20044;-73
2022/09/05 00:03:02;;;;;;;8.90;4.95;;;20.70;99.90;;;;;;5062428;28;20130;-74
2022/09/05 00:05:42;;;;;;;6.53;4.45;;;20.60;99.90;;;;;;5063268;28;20044;-74
2022/09/05 00:08:19;;;;;;;6.60;4.53;;;20.60;99.90;;;;;;5062182;28;20483;-75
2022/09/05 00:11:08;;;;;;;6.22;4.63;;;20.60;99.90;;;;;;5062839;28;20063;-73
2022/09/05 00:13:43;;;;;;;7.32;4.65;;;20.60;99.90;;;;;;5060911;28;20052;-74
2022/09/05 00:16:27;;;;;;;5.18;4.05;;;20.60;99.90;;;;;;5063948;28;20064;-74
2022/09/05 00:19:17;;;;;;;6.10;4.35;;;20.60;99.90;;;;;;5063664;28;20054;-74
2022/09/05 00:22:15;;;;;;;5.75;4.80;;;20.60;99.90;;;;;;5062784;28;20483;-74
2022/09/05 00:25:31;;;;;;;5.38;4.40;;;20.50;99.90;;;;;;5071119;28;20051;-74
2022/09/05 00:28:04;;;;;;;7.07;4.50;;;20.50;99.90;;;;;;5027168;28;20546;-74
2022/09/05 00:31:00;;;;;;;5.43;4.32;;;20.50;99.90;;;;;;5061953;28;20048;-73
2022/09/05 00:33:35;;;;;;;6.05;4.15;;;20.50;99.90;;;;;;5062471;28;20060;-74
2022/09/05 00:36:36;;;;;;;4.72;4.15;;;20.40;99.90;;;;;;5063540;28;20045;-73
2022/09/05 00:39:10;;;;;;;6.80;4.55;;;20.40;99.90;;;;;;5058274;28;20047;-74
2022/09/05 00:41:37;;;;;;;6.57;4.80;;;20.40;99.90;;;;;;5058421;28;20046;-74
2022/09/05 00:44:05;;;;;;;6.13;4.73;;;20.40;99.90;;;;;;5063056;28;20044;-73
2022/09/05 00:46:39;;;;;;;8.50;4.95;;;20.40;99.90;;;;;;5041033;28;20040;-74
2022/09/05 00:49:23;;;;;;;5.65;4.43;;;20.40;99.90;;;;;;5064622;28;20182;-74
2022/09/05 00:52:13;;;;;;;5.60;4.60;;;20.30;99.90;;;;;;5062513;28;20044;-73
2022/09/05 00:55:04;;;;;;;7.78;4.43;;;20.30;99.90;;;;;;5064802;28;20048;-73
2022/09/05 00:57:57;;;;;;;6.20;4.75;;;20.30;99.90;;;;;;5062025;28;20123;-72
2022/09/05 01:00:43;;;;;;;6.60;4.50;;;20.30;99.90;;;;;;5062486;28;20083;-73
2022/09/05 01:03:30;;;;;;;6.43;5.15;;;20.20;99.90;;;;;;5061099;28;20040;-74
2022/09/05 01:06:14;;;;;;;6.30;4.88;;;20.20;99.90;;;;;;5042073;28;20055;-74
2022/09/05 01:08:58;;;;;;;5.50;4.80;;;20.10;99.90;;;;;;5056970;28;20123;-73
2022/09/05 01:11:26;;;;;;;6.32;4.55;;;20.10;99.90;;;;;;5065914;28;20846;-74
2022/09/05 01:14:13;;;;;;;9.20;5.70;;;20.10;99.90;;;;;;5044746;28;20049;-73
2022/09/05 01:17:33;;;;;;;9.23;5.63;;;20.10;99.90;;;;;;5042336;28;20194;-72
2022/09/05 01:20:31;;;;;;;8.88;5.35;;;20.00;99.90;;;;;;4969338;28;20078;-74
2022/09/05 01:23:23;;;;;;;7.35;4.90;;;20.00;99.90;;;;;;5045088;28;20052;-74
2022/09/05 01:26:14;;;;;;;6.53;5.22;;;20.00;99.90;;;;;;5060434;28;20098;-73
2022/09/05 01:29:24;;;;;;;9.00;4.90;;;20.00;99.90;;;;;;5065857;28;20045;-73
2022/09/05 01:32:19;;;;;;;10.95;5.20;;;19.90;99.90;;;;;;4979868;28;20057;-74
2022/09/05 01:35:22;;;;;;;6.55;5.28;;;19.90;99.90;;;;;;4983333;28;20042;-74
2022/09/05 01:38:05;;;;;;;8.73;5.20;;;19.90;99.90;;;;;;5061553;28;20048;-74
2022/09/05 01:41:09;;;;;;;6.32;4.80;;;19.90;99.90;;;;;;5047574;28;20049;-74
2022/09/05 01:43:53;;;;;;;6.70;5.10;;;19.90;99.90;;;;;;5004928;28;20491;-75
2022/09/05 01:46:33;;;;;;;5.70;4.97;;;19.90;99.90;;;;;;5052206;28;20075;-73
2022/09/05 01:49:41;;;;;;;6.97;5.07;;;19.80;99.90;;;;;;5064459;28;20036;-73
2022/09/05 01:52:26;;;;;;;8.77;5.57;;;19.80;99.90;;;;;;5049297;28;20048;-73
2022/09/05 01:55:17;;;;;;;8.68;5.40;;;19.70;99.90;;;;;;5067241;28;20037;-73
2022/09/05 01:58:07;;;;;;;8.05;5.25;;;19.70;99.90;;;;;;5026805;28;20052;-74
2022/09/05 02:00:46;;;;;;;7.07;5.43;;;19.60;99.90;;;;;;5041441;28;20055;-74
2022/09/05 02:03:17;;;;;;;8.30;5.55;;;19.60;99.90;;;;;;5029370;28;20127;-74
2022/09/05 02:06:05;;;;;;;8.02;5.70;;;19.60;99.90;;;;;;5065657;28;20044;-72
2022/09/05 02:08:57;;;;;;;7.15;5.78;;;19.60;99.90;;;;;;5063723;28;20053;-74
2022/09/05 02:11:55;;;;;;;9.77;6.60;;;19.60;99.90;;;;;;5037501;28;20132;-74
2022/09/05 02:14:43;;;;;;;7.18;6.32;;;19.50;99.90;;;;;;5064121;28;20056;-73
2022/09/05 02:17:33;;;;;;;8.18;6.05;;;19.50;99.90;;;;;;5061506;28;20063;-73
2022/09/05 02:20:09;;;;;;;6.68;5.75;;;19.50;99.90;;;;;;5045076;28;20056;-74
2022/09/05 02:22:45;;;;;;;8.63;6.28;;;19.50;99.90;;;;;;5048025;28;20056;-75
2022/09/05 02:25:37;;;;;;;7.10;6.00;;;19.40;99.90;;;;;;5057679;28;20048;-74
2022/09/05 02:28:23;;;;;;;8.60;6.50;;;19.40;99.90;;;;;;5061311;28;20115;-74
2022/09/05 02:30:55;;;;;;;10.05;6.10;;;19.40;99.90;;;;;;5064399;28;20045;-74
2022/09/05 02:33:44;;;;;;;8.15;6.60;;;19.30;99.90;;;;;;5059138;28;20044;-73
2022/09/05 02:36:44;;;;;;;8.65;6.45;;;19.30;99.90;;;;;;5066255;28;20065;-73
2022/09/05 02:39:36;;;;;;;10.25;6.38;;;19.30;99.90;;;;;;5064871;28;20037;-73
2022/09/05 02:42:22;;;;;;;11.43;6.45;;;19.30;99.90;;;;;;5063873;28;20521;-73
2022/09/05 02:44:48;;;;;;;10.43;6.60;;;19.20;99.90;;;;;;5063860;28;20155;-73
2022/09/05 02:47:27;;;;;;;7.60;6.57;;;19.30;99.90;;;;;;5059803;28;20310;-73
2022/09/05 02:50:31;;;;;;;9.90;6.22;;;19.20;99.90;;;;;;5062852;28;20040;-72
2022/09/05 02:52:57;;;;;;;9.90;6.07;;;19.20;99.90;;;;;;5045573;28;20095;-73
2022/09/05 02:55:43;;;;;;;8.73;6.47;;;19.10;99.90;;;;;;5066175;28;20044;-75
2022/09/05 02:58:36;;;;;;;8.68;6.68;;;19.10;99.90;;;;;;5048743;28;20087;-73
2022/09/05 03:01:08;;;;;;;7.60;6.70;;;19.10;99.90;;;;;;5060170;28;20394;-73
2022/09/05 03:03:59;;;;;;;6.88;6.15;;;19.10;99.90;;;;;;5046312;28;20053;-73
2022/09/05 03:07:02;;;;;;;7.95;6.53;;;19.10;99.90;;;;;;5065114;28;20055;-74
2022/09/05 03:09:41;;;;;;;7.00;6.30;;;19.00;99.90;;;;;;5062506;28;20063;-73
2022/09/05 03:12:44;;;;;;;7.43;6.70;;;19.00;99.90;;;;;;5060874;28;20552;-75
2022/09/05 03:15:42;;;;;;;9.10;6.95;;;18.90;99.90;;;;;;5043384;28;20052;-74
2022/09/05 03:18:23;;;;;;;7.90;6.65;;;18.90;99.90;;;;;;5045087;28;20390;-75
2022/09/05 03:21:00;;;;;;;9.45;6.75;;;18.90;99.90;;;;;;5047835;28;20056;-74
2022/09/05 03:23:51;;;;;;;10.88;6.55;;;18.90;99.90;;;;;;5061907;28;20041;-72
2022/09/05 03:27:14;;;;;;;7.43;6.70;;;18.80;99.90;;;;;;5054472;28;20052;-73
2022/09/05 03:30:07;;;;;;;11.43;7.30;;;18.80;99.90;;;;;;4962665;28;20120;-73
2022/09/05 03:33:05;;;;;;;10.57;7.22;;;18.70;99.90;;;;;;4963423;28;20134;-73
2022/09/05 03:35:52;;;;;;;9.38;7.22;;;18.70;99.90;;;;;;5045836;28;20067;-73
2022/09/05 03:38:36;;;;;;;;;;;18.70;99.90;;;;;;5047477;28;20041;-73
2022/09/05 03:41:39;;;;;;;8.55;7.18;;;18.60;99.90;;;;;;5046380;28;20817;-72
2022/09/05 03:44:27;;;;;;;13.35;8.40;;;18.60;99.90;;;;;;5047337;28;20063;-72
2022/09/05 03:47:11;;;;;;;9.43;7.50;;;18.60;99.90;;;;;;5062003;28;20063;-72
2022/09/05 03:49:39;;;;;;;9.60;7.93;;;18.50;99.90;;;;;;5060883;28;20068;-73
2022/09/05 03:52:25;;;;;;;9.27;8.18;;;18.50;99.90;;;;;;5045255;28;20056;-73
2022/09/05 03:55:32;;;;;;;10.77;7.80;;;18.50;99.90;;;;;;5045747;28;20483;-73
2022/09/05 03:58:27;;;;;;;9.48;7.40;;;18.50;99.90;;;;;;5055552;28;20534;-73
2022/09/05 04:01:17;;;;;;;8.85;7.40;;;18.40;99.90;;;;;;5054435;28;20162;-73
2022/09/05 04:03:55;;;;;;;11.98;7.53;;;18.40;99.90;;;;;;5043489;28;20090;-72
2022/09/05 04:06:30;;;;;;;10.95;8.20;;;18.30;99.90;;;;;;5066871;28;20055;-73
2022/09/05 04:09:18;;;;;;;8.43;7.63;;;18.30;99.90;;;;;;5058130;28;20098;-73
2022/09/05 04:11:54;;;;;;;8.15;7.35;;;18.30;99.90;;;;;;5062510;28;20392;-73
2022/09/05 04:14:37;;;;;;;10.57;8.27;;;18.30;99.90;;;;;;5058159;28;20040;-73
2022/09/05 04:17:16;;;;;;;9.52;7.68;;;18.30;99.90;;;;;;5060054;28;20047;-73
2022/09/05 04:19:59;;;;;;;10.63;8.05;;;18.30;99.90;;;;;;5067075;28;20128;-73
2022/09/05 04:22:58;;;;;;;9.23;8.10;;;18.30;99.90;;;;;;5060559;28;20044;-73
2022/09/05 04:25:40;;;;;;;11.65;8.00;;;18.30;99.90;;;;;;5063011;28;20049;-73
2022/09/05 04:28:34;;;;;;;11.27;8.45;;;18.30;99.90;;;;;;5065365;28;20415;-72
2022/09/05 04:31:15;;;;;;;10.00;8.00;;;18.20;99.90;;;;;;5055095;28;20059;-73
2022/09/05 04:34:21;;;;;;;11.88;8.38;;;18.20;99.90;;;;;;5063955;28;20047;-73
2022/09/05 04:37:07;;;;;;;9.57;8.00;;;18.20;99.90;;;;;;5068255;28;20713;-73
2022/09/05 04:39:34;;;;;;;10.02;8.20;;;18.20;99.90;;;;;;5063553;28;20495;-74
2022/09/05 04:42:18;;;;;;;10.32;8.38;;;18.20;99.90;;;;;;5057189;28;20055;-72
2022/09/05 04:45:00;;;;;;;12.52;8.25;;;18.20;99.90;;;;;;5060730;28;20115;-70
2022/09/05 04:47:33;;;;;;;9.52;8.30;;;18.20;99.90;;;;;;5045967;28;20403;-71
2022/09/05 04:50:10;;;;;;;10.50;8.57;;;18.10;99.90;;;;;;5051400;28;20154;-71
2022/09/05 04:53:09;;;;;;;9.30;8.40;;;18.10;99.90;;;;;;5051024;28;20049;-71
2022/09/05 04:56:26;;;;;;;9.98;8.48;;;18.10;99.90;;;;;;5066602;28;20094;-72
2022/09/05 04:59:01;;;;;;;11.55;7.95;;;18.10;99.90;;;;;;5061274;28;20056;-71
2022/09/05 05:01:32;;;;;;;10.63;8.63;;;18.00;99.90;;;;;;5066231;28;20369;-71
2022/09/05 05:04:06;;;;;;;10.43;8.13;;;18.00;99.90;;;;;;5065807;28;20762;-70
2022/09/05 05:06:37;;;;;;;9.93;7.85;;;18.00;99.90;;;;;;5060991;28;20055;-71
2022/09/05 05:09:28;;;;;;;9.23;7.85;;;18.00;99.90;;;;;;5045395;28;20061;-73
2022/09/05 05:12:00;;;;;;;12.82;8.27;;;18.00;99.90;;;;;;5064186;28;20106;-71
2022/09/05 05:14:41;;;;;;;9.82;8.40;;;18.00;99.90;;;;;;5064740;28;20044;-72
2022/09/05 05:17:16;;;;;;;9.25;8.35;;;17.90;99.90;;;;;;5057792;28;20453;-72
2022/09/05 05:19:49;;;;;;;10.00;8.80;;;17.90;99.90;;;;;;5050104;28;20044;-72
2022/09/05 05:22:17;;;;;;;10.13;8.50;;;17.90;99.90;;;;;;5070839;28;20054;-72
2022/09/05 05:24:50;;;;;;;9.85;8.50;;;17.90;99.90;;;;;;5072031;28;20119;-72
2022/09/05 05:27:22;;;;;;;10.63;9.02;;;17.90;99.90;;;;;;5046609;28;20740;-72
2022/09/05 05:29:56;;;;;;;9.93;8.38;;;17.90;99.90;;;;;;5067155;28;20052;-73
2022/09/05 05:32:43;;;;;;;9.68;8.50;;;17.90;99.90;;;;;;5064822;28;20399;-71
2022/09/05 05:35:22;;;;;;;9.95;8.95;;;18.00;99.90;;;;;;5056486;28;20483;-74
2022/09/05 05:38:00;;;;;;;10.38;9.25;;;17.90;99.90;;;;;;5064373;28;20119;-71
2022/09/05 05:40:30;;;;;;;11.70;8.98;;;18.00;99.90;;;;;;5047934;28;20060;-72
2022/09/05 05:43:38;;;;;;;12.95;9.60;;;18.00;99.90;;;;;;5064021;28;20127;-70
2022/09/05 05:46:04;;;;;;;10.90;8.73;;;18.00;99.90;;;;;;5038616;28;20044;-71
2022/09/05 05:48:41;;;;;;;12.32;8.90;;;18.00;99.90;;;;;;5045410;28;20051;-71
2022/09/05 05:51:16;;;;;;;11.05;9.10;;;18.10;99.90;;;;;;5054063;28;20071;-71
2022/09/05 05:54:15;;;;;;;12.57;9.57;;;18.10;99.90;;;;;;5047431;28;20072;-71
2022/09/05 05:56:54;;;;;;;15.48;9.68;;;18.10;99.90;;;;;;5067452;28;20048;-71
2022/09/05 05:59:40;;;;;;;12.43;9.40;;;18.20;99.90;;;;;;5057756;28;20124;-72
2022/09/05 06:02:33;;;;;;;10.48;9.38;;;18.20;99.90;;;;;;5054799;28;20048;-71
2022/09/05 06:05:30;;;;;;;11.95;10.10;;;18.20;99.90;;;;;;5048392;28;20040;-70
2022/09/05 06:08:01;;;;;;;10.57;9.48;;;18.30;99.90;;;;;;5059839;28;20175;-70
2022/09/05 06:11:02;;;;;;;12.60;9.85;;;18.30;99.90;;;;;;5069144;28;20048;-71
2022/09/05 06:13:38;;;;;;;10.57;9.45;;;18.30;99.90;;;;;;5026396;28;20061;-70
2022/09/05 06:16:31;;;;;;;11.85;9.50;;;18.40;99.90;;;;;;5063525;28;20047;-70
2022/09/05 06:19:12;;;;;;;11.23;9.50;;;18.40;99.90;;;;;;5063114;28;20071;-71
2022/09/05 06:22:06;;;;;;;10.50;9.40;;;18.50;99.90;;;;;;5060370;28;20086;-72
2022/09/05 06:25:09;;;;;;;11.82;10.63;;;18.50;99.90;;;;;;5067082;28;20580;-71
2022/09/05 06:28:24;;;;;;;13.68;9.75;;;18.60;99.90;;;;;;5043995;28;20053;-71
2022/09/05 06:31:15;;;;;;;11.23;10.13;;;18.70;99.90;;;;;;4961926;28;20068;-72
2022/09/05 06:34:15;;;;;;;10.95;9.63;;;18.70;99.90;;;;;;4969193;28;20054;-72
2022/09/05 06:36:54;;;;;;;12.32;9.82;;;18.80;99.90;;;;;;5061992;28;20063;-71
2022/09/05 06:39:44;;;;;;;11.98;10.15;;;18.90;99.90;;;;;;5044448;28;20052;-74
2022/09/05 06:42:21;;;;;;;10.73;9.63;;;18.90;99.90;;;;;;5044058;28;20036;-74
2022/09/05 06:45:17;;;;;;;11.35;10.18;;;19.10;99.90;;;;;;5068891;28;20487;-77
2022/09/05 06:47:46;;;;;;;13.45;9.40;;;19.20;99.90;;;;;;5049388;28;20087;-76
2022/09/05 06:50:15;;;;;;;11.52;9.60;;;19.20;99.90;;;;;;5056160;28;20037;-78
2022/09/05 06:52:46;;;;;;;12.18;9.48;;;19.30;99.90;;;;;;5053335;28;20491;-75
2022/09/05 06:55:27;;;;;;;14.93;9.45;;;19.40;99.90;;;;;;5050994;28;20052;-75
2022/09/05 06:58:20;;;;;;;23.80;11.40;;;19.40;99.90;;;;;;5052719;28;20123;-79
2022/09/05 07:00:56;;;;;;;30.00;10.75;;;19.50;99.90;;;;;;5051206;28;20495;-77
2022/09/05 07:03:28;;;;;;;13.03;9.70;;;19.60;99.90;;;;;;5068607;28;20049;-80
2022/09/05 07:06:18;;;;;;;13.20;9.88;;;19.60;99.90;;;;;;5051562;28;20092;-81
2022/09/05 07:08:57;;;;;;;12.48;9.60;;;19.70;99.90;;;;;;5066505;28;20065;-78
2022/09/05 07:11:34;;;;;;;12.73;9.40;;;19.70;99.90;;;;;;5063089;28;20063;-74
2022/09/05 07:14:27;;;;;;;12.52;9.35;;;19.80;99.90;;;;;;5051296;28;20079;-77
2022/09/05 07:17:04;;;;;;;10.32;9.32;;;19.90;99.90;;;;;;5038605;28;20045;-83
2022/09/05 07:19:36;;;;;;;;;;;20.00;99.90;;;;;;5066692;28;20082;-74
2022/09/05 07:22:16;;;;;;;11.07;8.98;;;20.10;99.90;;;;;;5061946;28;20019;-79
2022/09/05 07:24:46;;;;;;;;;;;20.10;99.90;;;;;;5050703;28;20044;-77
2022/09/05 07:27:28;;;;;;;12.27;9.40;;;20.20;99.90;;;;;;5048702;28;19928;-77
2022/09/05 07:29:57;;;;;;;15.50;9.15;;;20.30;99.90;;;;;;5068432;28;20387;-77
2022/09/05 07:32:23;;;;;;;11.18;8.80;;;20.30;99.90;;;;;;5067758;28;20441;-80
2022/09/05 07:34:51;;;;;;;12.60;9.43;;;20.40;99.90;;;;;;5060969;28;20475;-78
2022/09/05 07:37:29;;;;;;;12.25;8.77;;;20.50;99.90;;;;;;5050875;28;20083;-77
2022/09/05 07:40:00;;;;;;;10.98;9.63;;;20.60;99.90;;;;;;5067772;28;20052;-77
2022/09/05 07:42:40;;;;;;;13.20;8.63;;;20.60;99.90;;;;;;5069204;28;20044;-77
2022/09/05 07:45:12;;;;;;;10.45;8.75;;;20.70;99.90;;;;;;5048579;28;20549;-76
2022/09/05 07:47:56;;;;;;;15.40;9.00;;;20.70;99.90;;;;;;5068368;28;20052;-77
2022/09/05 07:50:23;;;;;;;14.63;9.73;;;20.80;99.90;;;;;;5067054;28;20045;-77
2022/09/05 07:52:49;;;;;;;11.25;8.77;;;20.90;99.90;;;;;;5057099;28;20049;-77
2022/09/05 07:55:24;;;;;;;11.52;8.60;;;20.90;99.90;;;;;;5061464;28;20406;-77
2022/09/05 07:57:51;;;;;;;10.02;8.50;;;21.00;99.90;;;;;;5068929;28;20047;-77
2022/09/05 08:00:23;;;;;;;10.60;8.18;;;21.10;99.90;;;;;;5068561;28;20136;-77
2022/09/05 08:02:49;;;;;;;9.73;8.73;;;21.10;99.90;;;;;;5065332;28;20037;-77
2022/09/05 08:05:20;;;;;;;9.25;8.35;;;21.20;99.90;;;;;;5067345;28;20084;-77
2022/09/05 08:07:52;;;;;;;10.00;8.00;;;21.30;99.90;;;;;;5063946;28;20149;-77
2022/09/05 08:10:27;;;;;;;9.73;8.13;;;21.40;99.90;;;;;;5047749;28;20114;-80
2022/09/05 08:13:01;;;;;;;9.98;7.55;;;21.50;99.90;;;;;;5069236;28;20074;-80
2022/09/05 08:15:28;;;;;;;9.45;7.65;;;21.60;99.90;;;;;;5062292;28;20040;-76
2022/09/05 08:18:06;;;;;;;8.57;7.68;;;21.70;99.90;;;;;;5066635;28;20047;-76
2022/09/05 08:20:44;;;;;;;10.40;7.13;;;21.80;99.90;;;;;;5068819;28;20045;-78
2022/09/05 08:23:32;;;;;;;9.73;7.95;;;21.90;99.90;;;;;;5064755;28;20407;-77
2022/09/05 08:26:19;;;;;;;8.32;7.43;;;22.00;99.90;;;;;;5062821;28;20510;-77
2022/09/05 08:28:58;;;;;;;13.25;7.65;;;22.20;99.90;;;;;;5051501;28;20072;-78
2022/09/05 08:31:40;;;;;;;8.55;6.80;;;22.20;99.90;;;;;;5068509;28;20040;-78
2022/09/05 08:34:20;;;;;;;10.23;7.57;;;22.30;99.90;;;;;;5050024;28;20048;-79
2022/09/05 08:36:48;;;;;;;10.82;7.32;;;22.40;99.90;;;;;;5062389;28;20049;-80
2022/09/05 08:39:20;;;;;;;8.77;6.55;;;22.50;99.90;;;;;;5067855;28;20422;-80
2022/09/05 08:42:10;;;;;;;10.95;7.18;;;22.50;99.90;;;;;;5050320;28;20044;-80
2022/09/05 08:44:41;;;;;;;10.82;7.20;;;22.70;99.90;;;;;;5067271;28;20490;-80
2022/09/05 08:47:27;;;;;;;9.73;6.47;;;22.80;99.90;;;;;;5067910;28;20036;-80
2022/09/05 08:50:32;;;;;;;9.20;7.10;;;22.80;99.90;;;;;;5067800;28;20063;-80
2022/09/05 08:53:31;;;;;;;10.70;6.97;;;22.90;99.90;;;;;;5068131;28;20059;-80
2022/09/05 08:56:21;;;;;;;7.88;6.55;;;22.90;99.90;;;;;;5049533;28;20041;-80
2022/09/05 08:59:08;;;;;;;9.18;6.38;;;23.00;99.90;;;;;;5067682;28;20576;-79
2022/09/05 09:01:36;;;;;;;;;;;23.10;99.90;;;;;;5067625;28;20453;-79
2022/09/05 09:04:11;;;;;;;9.43;6.30;;;23.10;99.90;;;;;;5050399;28;19989;-80
2022/09/05 09:06:43;;;;;;;9.68;6.07;;;23.10;99.90;;;;;;5068346;28;20183;-81
2022/09/05 09:09:40;;;;;;;8.05;6.10;;;23.30;99.90;;;;;;5067730;28;20052;-80
2022/09/05 09:12:13;;;;;;;15.00;6.00;;;23.40;99.90;;;;;;5067259;28;20395;-80
2022/09/05 09:14:57;;;;;;;8.50;6.30;;;23.40;99.90;;;;;;5068713;28;20041;-80
2022/09/05 09:17:43;;;;;;;12.20;6.90;;;23.50;99.90;;;;;;5070827;28;20051;-79
2022/09/05 09:20:41;;;;;;;6.95;5.80;;;23.60;99.90;;;;;;5070797;28;20120;-79
2022/09/05 09:23:46;;;;;;;7.30;6.35;;;23.70;99.90;;;;;;5041230;28;20463;-79
2022/09/05 09:26:22;;;;;;;7.30;5.85;;;23.80;99.90;;;;;;4984764;28;20407;-78
2022/09/05 09:29:09;;;;;;;12.88;5.80;;;23.90;99.90;;;;;;5068116;28;20041;-78
2022/09/05 09:31:43;;;;;;;;;;;24.00;99.90;;;;;;5081274;28;20096;-78
2022/09/05 09:34:31;;;;;;;8.77;5.68;;;24.00;99.90;;;;;;5063271;28;19924;-78
2022/09/05 09:37:09;;;;;;;7.55;4.50;;;24.10;99.90;;;;;;5081036;28;20048;-78
2022/09/05 09:39:35;;;;;;;7.40;4.47;;;24.20;99.90;;;;;;5063288;28;20084;-78
2022/09/05 09:42:22;;;;;;;7.50;4.60;;;24.30;99.90;;;;;;5063711;28;20052;-78
2022/09/05 09:45:07;;;;;;;;;;;24.40;99.90;;;;;;5064467;28;20036;-79
2022/09/05 09:48:04;;;;;;;7.27;5.03;;;24.40;99.90;;;;;;5063841;28;19924;-78
2022/09/05 09:51:01;;;;;;;8.00;4.50;;;24.60;99.90;;;;;;5079569;28;20045;-79
2022/09/05 09:53:41;;;;;;;6.70;4.13;;;24.70;99.90;;;;;;5061840;28;20045;-80
2022/09/05 09:56:38;;;;;;;5.55;4.30;;;24.70;99.90;;;;;;5071858;28;20044;-80
2022/09/05 09:59:24;;;;;;;6.32;4.25;;;24.80;99.90;;;;;;5053878;28;20059;-80
2022/09/05 10:02:14;;;;;;;4.45;3.78;;;24.90;99.30;;;;;;5053525;28;20048;-80
2022/09/05 10:04:59;;;;;;;9.38;4.30;;;25.00;99.50;;;;;;5053615;28;20124;-80
2022/09/05 10:07:41;;;;;;;7.00;4.50;;;25.00;99.80;;;;;;5052965;28;20056;-79
2022/09/05 10:10:22;;;;;;;9.20;4.28;;;25.10;98.80;;;;;;5071044;28;20067;-79
2022/09/05 10:12:53;;;;;;;5.07;3.97;;;25.20;98.90;;;;;;5053084;28;20059;-79
2022/09/05 10:15:33;;;;;;;4.40;3.38;;;25.30;97.40;;;;;;5051968;28;20048;-80
2022/09/05 10:18:14;;;;;;;5.93;3.40;;;25.40;96.30;;;;;;5053378;28;20352;-80
2022/09/05 10:20:52;;;;;;;6.80;3.55;;;25.50;95.60;;;;;;5053169;28;20036;-80
2022/09/05 10:23:36;;;;;;;4.63;3.13;;;25.50;94.40;;;;;;5052141;28;20052;-79
2022/09/05 10:26:20;;;;;;;5.90;2.70;;;25.60;93.50;;;;;;5052058;28;20052;-78
2022/09/05 10:29:11;;;;;;;5.38;3.08;;;25.80;90.30;;;;;;5070065;28;20045;-80
2022/09/05 10:31:40;;;;;;;5.68;3.20;;;25.80;91.20;;;;;;5052464;28;20045;-80
2022/09/05 10:34:21;;;;;;;5.63;3.25;;;25.90;87.70;;;;;;5069894;28;20258;-80
2022/09/05 10:37:10;;;;;;;6.95;3.55;;;26.00;91.10;;;;;;5051876;28;20055;-80
2022/09/05 10:40:04;;;;;;;6.10;3.60;;;26.00;90.50;;;;;;5070625;28;20442;-80
2022/09/05 10:42:42;;;;;;;5.45;3.55;;;26.00;91.60;;;;;;5069992;28;20542;-80
2022/09/05 10:45:48;;;;;;;6.28;3.70;;;26.10;92.10;;;;;;5052013;28;20052;-80
2022/09/05 10:48:20;;;;;;;;;;;26.10;91.60;;;;;;5024230;28;20573;-80
2022/09/05 10:51:03;;;;;;;5.20;3.30;;;26.10;92.30;;;;;;5069124;28;19966;-80
2022/09/05 10:53:35;;;;;;;3.65;2.92;;;26.20;90.70;;;;;;5051934;28;20106;-80
2022/09/05 10:56:21;;;;;;;5.53;3.25;;;26.30;90.60;;;;;;5069816;28;20080;-80
2022/09/05 10:59:03;;;;;;;7.28;3.30;;;26.40;91.40;;;;;;5051483;28;20040;-80
2022/09/05 11:01:58;;;;;;;5.00;3.20;;;26.50;90.10;;;;;;5070122;28;20119;-80
2022/09/05 11:04:47;;;;;;;7.97;3.65;;;26.60;85.00;;;;;;5051378;28;20067;-80
2022/09/05 11:07:17;;;;;;;5.53;3.33;;;26.70;81.90;;;;;;5069381;28;20139;-79
2022/09/05 11:09:48;;;;;;;5.85;3.38;;;26.70;76.40;;;;;;5072886;28;20094;-78
2022/09/05 11:12:45;;;;;;;3.78;3.30;;;26.70;73.20;;;;;;5052214;28;20060;-80
2022/09/05 11:15:31;;;;;;;8.18;3.85;;;26.80;75.50;;;;;;5050657;28;20433;-80
2022/09/05 11:18:21;;;;;;;4.55;3.47;;;26.80;72.50;;;;;;5050292;28;20079;-80
2022/09/05 11:21:30;;;;;;;7.75;3.38;;;26.90;74.30;;;;;;5069767;28;20040;-80
2022/09/05 11:24:00;;;;;;;4.25;3.78;;;27.00;74.60;;;;;;5007057;28;20078;-78
2022/09/05 11:26:45;;;;;;;5.63;3.60;;;27.10;74.30;;;;;;5068595;28;20040;-78
2022/09/05 11:29:17;;;;;;;5.87;3.77;;;27.10;74.60;;;;;;5068827;28;20446;-78
2022/09/05 11:32:21;;;;;;;5.38;3.22;;;27.10;72.40;;;;;;5069649;28;20041;-80
2022/09/05 11:34:56;;;;;;;4.53;3.50;;;27.20;71.50;;;;;;5068827;28;20040;-80
2022/09/05 11:37:46;;;;;;;7.28;3.10;;;27.30;72.60;;;;;;5069344;28;20059;-80
2022/09/05 11:40:43;;;;;;;6.68;3.50;;;27.30;73.30;;;;;;5068194;28;20044;-80
2022/09/05 11:43:38;;;;;;;7.00;3.50;;;27.30;71.10;;;;;;5068823;28;20079;-79
2022/09/05 11:46:27;;;;;;;5.03;3.40;;;27.40;73.10;;;;;;5067556;28;20063;-80
2022/09/05 11:49:13;;;;;;;4.43;3.63;;;27.50;69.00;;;;;;5068697;28;20049;-79
2022/09/05 11:52:16;;;;;;;3.80;3.15;;;27.60;68.70;;;;;;5069054;28;20394;-79
2022/09/05 11:55:25;;;;;;;4.28;3.00;;;27.70;67.50;;;;;;5067984;28;20181;-80
2022/09/05 11:58:17;;;;;;;5.82;3.20;;;27.80;65.90;;;;;;5025014;28;20061;-80
2022/09/05 12:00:47;;;;;;;4.43;3.00;;;27.90;65.80;;;;;;5068582;28;20049;-79
2022/09/05 12:03:30;;;;;;;3.35;3.05;;;28.00;64.10;;;;;;5068617;28;20044;-78
2022/09/05 12:06:21;;;;;;;4.03;3.00;;;28.10;63.30;;;;;;5067567;28;20040;-78
2022/09/05 12:08:55;;;;;;;3.88;3.47;;;28.10;60.70;;;;;;5050627;28;20048;-78
2022/09/05 12:11:30;;;;;;;4.13;3.47;;;28.20;59.60;;;;;;5069090;28;20048;-78
2022/09/05 12:14:22;;;;;;;5.78;3.00;;;28.20;60.50;;;;;;5068058;28;20080;-79
2022/09/05 12:16:57;;;;;;;5.00;2.80;;;28.30;59.30;;;;;;5050571;28;20052;-79
2022/09/05 12:19:31;;;;;;;4.40;2.80;;;28.40;57.90;;;;;;5050993;28;20144;-79
2022/09/05 12:22:02;;;;;;;3.97;2.80;;;28.50;56.70;;;;;;5067224;28;20044;-79
2022/09/05 12:24:59;;;;;;;3.88;2.80;;;28.50;55.80;;;;;;5068746;28;20036;-79
2022/09/05 12:27:28;;;;;;;4.05;2.67;;;28.50;55.90;;;;;;5068916;28;20407;-79
2022/09/05 12:29:57;;;;;;;3.70;3.17;;;28.60;57.20;;;;;;5067737;28;20441;-79
2022/09/05 12:32:24;;;;;;;5.38;2.85;;;28.60;58.10;;;;;;5050489;28;20061;-79
2022/09/05 12:35:01;;;;;;;4.10;2.92;;;28.70;57.00;;;;;;5050677;28;20901;-79
2022/09/05 12:37:58;;;;;;;3.92;2.72;;;28.80;56.20;;;;;;5068141;28;20055;-79
2022/09/05 12:40:32;;;;;;;4.80;2.50;;;28.90;54.90;;;;;;5050663;28;20051;-78
2022/09/05 12:43:04;;;;;;;3.78;2.40;;;28.90;55.00;;;;;;5067104;28;20094;-79
2022/09/05 12:46:20;;;;;;;2.88;2.35;;;29.00;54.60;;;;;;5068565;28;20047;-78
2022/09/05 12:48:58;;;;;;;3.28;2.45;;;29.10;55.60;;;;;;5047031;28;20067;-79
2022/09/05 12:51:32;;;;;;;5.03;2.63;;;29.10;54.10;;;;;;5067757;28;20052;-79
2022/09/05 12:54:07;;;;;;;3.03;2.50;;;29.10;53.30;;;;;;5049751;28;20041;-79
2022/09/05 12:56:46;;;;;;;4.13;2.42;;;29.10;52.80;;;;;;5067936;28;20083;-80
2022/09/05 12:59:16;;;;;;;4.28;2.30;;;29.20;52.50;;;;;;5050105;28;20056;-79
2022/09/05 13:01:44;;;;;;;3.63;3.08;;;29.30;52.50;;;;;;5072675;28;20136;-80
2022/09/05 13:04:20;;;;;;;3.85;2.60;;;29.30;51.70;;;;;;5049949;28;20099;-79
2022/09/05 13:06:52;;;;;;;;;;;29.40;51.50;;;;;;5054384;28;20044;-79
2022/09/05 13:09:52;;;;;;;3.70;2.38;;;29.40;52.80;;;;;;5071612;28;19977;-78
2022/09/05 13:12:36;;;;;;;5.07;2.75;;;29.40;52.80;;;;;;5057079;28;20057;-79
2022/09/05 13:15:34;;;;;;;4.72;2.47;;;29.50;52.70;;;;;;5054178;28;20502;-79
2022/09/05 13:18:38;;;;;;;3.67;2.63;;;29.50;53.30;;;;;;5071019;28;20049;-79
2022/09/05 13:21:24;;;;;;;6.80;2.55;;;29.50;52.10;;;;;;5067026;28;20053;-79
2022/09/05 13:24:05;;;;;;;;;;;29.50;51.30;;;;;;5071905;28;20051;-79
2022/09/05 13:26:48;;;;;;;4.65;2.10;;;29.40;52.10;;;;;;5071328;28;19921;-79
2022/09/05 13:29:31;;;;;;;2.67;2.28;;;29.30;51.00;;;;;;5071409;28;20120;-79
2022/09/05 13:32:08;;;;;;;4.85;2.30;;;29.20;51.00;;;;;;5052108;28;20102;-79
2022/09/05 13:34:45;;;;;;;2.72;2.20;;;29.10;51.40;;;;;;5071713;28;20037;-79
2022/09/05 13:37:20;;;;;;;2.78;2.40;;;29.00;51.70;;;;;;5053498;28;20052;-78
2022/09/05 13:39:55;;;;;;;3.92;2.60;;;29.00;52.00;;;;;;5070903;28;20059;-79
2022/09/05 13:42:24;;;;;;;3.35;2.50;;;29.10;51.80;;;;;;5071164;28;20505;-79
2022/09/05 13:45:00;;;;;;;3.33;2.25;;;29.20;53.00;;;;;;5053740;28;20587;-79
2022/09/05 13:47:49;;;;;;;4.15;2.65;;;29.30;52.10;;;;;;5053445;28;20091;-79
2022/09/05 13:50:29;;;;;;;3.37;2.17;;;29.50;51.30;;;;;;5052835;28;20044;-79
2022/09/05 13:53:04;;;;;;;3.22;2.28;;;29.50;51.50;;;;;;5052278;28;20681;-79
2022/09/05 13:55:42;;;;;;;2.58;2.20;;;29.50;50.90;;;;;;5071660;28;20048;-79
2022/09/05 13:58:35;;;;;;;4.07;2.30;;;29.60;50.50;;;;;;5070578;28;20598;-79
2022/09/05 14:01:13;;;;;;;3.70;2.50;;;29.70;49.90;;;;;;5051956;28;20055;-78
2022/09/05 14:04:00;;;;;;;3.80;2.15;;;29.60;50.00;;;;;;5053115;28;20051;-79
2022/09/05 14:06:31;;;;;;;3.35;2.30;;;29.60;50.30;;;;;;5071219;28;20053;-79
2022/09/05 14:09:26;;;;;;;3.00;1.98;;;29.70;50.20;;;;;;5069450;28;20406;-79